sensor_id;sensor_type;location;lat;lon;timestamp;temperature;humidity
3866;DHT22;1948;53.250;10.412;2023-03-02T00:02:03;3.40;99.90
3866;DHT22;1948;53.250;10.412;2023-03-02T00:04:41;3.40;99.90
3866;DHT22;1948;53.250;10.412;2023-03-02T00:07:17;3.40;99.90
3866;DHT22;1948;53.250;10.412;2023-03-02T00:09:46;3.30;99.90
3866;DHT22;1948;53.250;10.412;2023-03-02T00:12:14;3.30;99.90
3866;DHT22;1948;53.250;10.412;2023-03-02T00:14:44;3.30;99.90
3866;DHT22;1948;53.250;10.412;2023-03-02T00:17:11;3.30;99.90
3866;DHT22;1948;53.250;10.412;2023-03-02T00:19:38;3.30;99.90
3866;DHT22;1948;53.250;10.412;2023-03-02T00:22:07;3.40;99.90
3866;DHT22;1948;53.250;10.412;2023-03-02T00:24:36;3.50;99.90
3866;DHT22;1948;53.250;10.412;2023-03-02T00:27:06;3.50;99.90
3866;DHT22;1948;53.250;10.412;2023-03-02T00:29:35;3.50;99.90
3866;DHT22;1948;53.250;10.412;2023-03-02T00:32:02;3.60;99.90
3866;DHT22;1948;53.250;10.412;2023-03-02T00:34:29;3.60;99.90
3866;DHT22;1948;53.250;10.412;2023-03-02T00:36:59;3.60;99.90
3866;DHT22;1948;53.250;10.412;2023-03-02T00:39:26;3.70;99.90
3866;DHT22;1948;53.250;10.412;2023-03-02T00:41:53;3.60;99.90
3866;DHT22;1948;53.250;10.412;2023-03-02T00:44:20;3.60;99.90
3866;DHT22;1948;53.250;10.412;2023-03-02T00:46:49;3.60;99.90
3866;DHT22;1948;53.250;10.412;2023-03-02T00:49:16;3.60;99.90
3866;DHT22;1948;53.250;10.412;2023-03-02T00:51:43;3.60;99.90
3866;DHT22;1948;53.250;10.412;2023-03-02T00:54:10;3.60;99.90
3866;DHT22;1948;53.250;10.412;2023-03-02T00:56:37;3.60;99.90
3866;DHT22;1948;53.250;10.412;2023-03-02T00:59:08;3.60;99.90
3866;DHT22;1948;53.250;10.412;2023-03-02T01:01:53;3.50;99.90
3866;DHT22;1948;53.250;10.412;2023-03-02T01:04:32;3.40;99.90
3866;DHT22;1948;53.250;10.412;2023-03-02T01:07:06;3.40;99.90
3866;DHT22;1948;53.250;10.412;2023-03-02T01:09:38;3.40;99.90
3866;DHT22;1948;53.250;10.412;2023-03-02T01:12:11;3.50;99.90
3866;DHT22;1948;53.250;10.412;2023-03-02T01:14:45;3.40;99.90
3866;DHT22;1948;53.250;10.412;2023-03-02T01:17:13;3.40;99.90
3866;DHT22;1948;53.250;10.412;2023-03-02T01:19:41;3.40;99.90
3866;DHT22;1948;53.250;10.412;2023-03-02T01:22:09;3.40;99.90
3866;DHT22;1948;53.250;10.412;2023-03-02T01:24:36;3.50;99.90
3866;DHT22;1948;53.250;10.412;2023-03-02T01:27:03;3.60;99.90
3866;DHT22;1948;53.250;10.412;2023-03-02T01:29:30;3.60;99.90
3866;DHT22;1948;53.250;10.412;2023-03-02T01:31:57;3.40;99.90
3866;DHT22;1948;53.250;10.412;2023-03-02T01:34:26;3.50;99.90
3866;DHT22;1948;53.250;10.412;2023-03-02T01:36:58;3.40;99.90
3866;DHT22;1948;53.250;10.412;2023-03-02T01:39:27;3.30;99.90
3866;DHT22;1948;53.250;10.412;2023-03-02T01:41:59;3.40;99.90
3866;DHT22;1948;53.250;10.412;2023-03-02T01:47:05;3.40;99.90
3866;DHT22;1948;53.250;10.412;2023-03-02T01:50:04;3.40;99.90
3866;DHT22;1948;53.250;10.412;2023-03-02T01:52:37;3.50;99.90
3866;DHT22;1948;53.250;10.412;2023-03-02T01:55:07;3.50;99.90
3866;DHT22;1948;53.250;10.412;2023-03-02T01:57:38;3.50;99.90
3866;DHT22;1948;53.250;10.412;2023-03-02T02:00:27;3.50;99.90
3866;DHT22;1948;53.250;10.412;2023-03-02T02:03:04;3.40;99.90
3866;DHT22;1948;53.250;10.412;2023-03-02T02:05:39;3.30;99.90
3866;DHT22;1948;53.250;10.412;2023-03-02T02:08:11;3.10;99.90
3866;DHT22;1948;53.250;10.412;2023-03-02T02:10:43;3.10;99.90
3866;DHT22;1948;53.250;10.412;2023-03-02T02:13:12;3.20;99.90
3866;DHT22;1948;53.250;10.412;2023-03-02T02:15:40;3.10;99.90
3866;DHT22;1948;53.250;10.412;2023-03-02T02:18:09;3.10;99.90
3866;DHT22;1948;53.250;10.412;2023-03-02T02:20:42;3.10;99.90
3866;DHT22;1948;53.250;10.412;2023-03-02T02:26:54;3.00;99.90
3866;DHT22;1948;53.250;10.412;2023-03-02T02:34:57;2.90;99.90
3866;DHT22;1948;53.250;10.412;2023-03-02T02:37:40;2.80;99.90
3866;DHT22;1948;53.250;10.412;2023-03-02T02:40:35;2.80;99.90
3866;DHT22;1948;53.250;10.412;2023-03-02T02:43:14;2.80;99.90
3866;DHT22;1948;53.250;10.412;2023-03-02T02:45:44;2.80;99.90
3866;DHT22;1948;53.250;10.412;2023-03-02T02:48:20;2.80;99.90
3866;DHT22;1948;53.250;10.412;2023-03-02T02:50:51;2.70;99.90
3866;DHT22;1948;53.250;10.412;2023-03-02T02:53:38;2.70;99.90
3866;DHT22;1948;53.250;10.412;2023-03-02T02:56:09;2.70;99.90
3866;DHT22;1948;53.250;10.412;2023-03-02T02:58:49;2.60;99.90
3866;DHT22;1948;53.250;10.412;2023-03-02T03:01:20;2.60;99.90
3866;DHT22;1948;53.250;10.412;2023-03-02T03:03:59;2.70;99.90
3866;DHT22;1948;53.250;10.412;2023-03-02T03:06:32;2.70;99.90
3866;DHT22;1948;53.250;10.412;2023-03-02T03:09:11;2.70;99.90
3866;DHT22;1948;53.250;10.412;2023-03-02T03:11:45;2.80;99.90
3866;DHT22;1948;53.250;10.412;2023-03-02T03:14:19;2.80;99.90
3866;DHT22;1948;53.250;10.412;2023-03-02T03:16:49;2.80;99.90
3866;DHT22;1948;53.250;10.412;2023-03-02T03:19:29;2.80;99.90
3866;DHT22;1948;53.250;10.412;2023-03-02T03:22:00;2.90;99.90
3866;DHT22;1948;53.250;10.412;2023-03-02T03:24:29;2.80;99.90
3866;DHT22;1948;53.250;10.412;2023-03-02T03:26:57;2.90;99.90
3866;DHT22;1948;53.250;10.412;2023-03-02T03:29:26;2.90;99.90
3866;DHT22;1948;53.250;10.412;2023-03-02T03:31:56;2.90;99.90
3866;DHT22;1948;53.250;10.412;2023-03-02T03:34:27;2.80;99.90
3866;DHT22;1948;53.250;10.412;2023-03-02T03:36:59;2.80;99.90
3866;DHT22;1948;53.250;10.412;2023-03-02T03:39:30;2.70;99.90
3866;DHT22;1948;53.250;10.412;2023-03-02T03:42:00;2.70;99.90
3866;DHT22;1948;53.250;10.412;2023-03-02T03:44:28;2.80;99.90
3866;DHT22;1948;53.250;10.412;2023-03-02T03:46:59;2.70;99.90
3866;DHT22;1948;53.250;10.412;2023-03-02T03:49:29;2.70;99.90
3866;DHT22;1948;53.250;10.412;2023-03-02T03:51:58;2.70;99.90
3866;DHT22;1948;53.250;10.412;2023-03-02T03:54:25;2.80;99.90
3866;DHT22;1948;53.250;10.412;2023-03-02T03:56:54;2.70;99.90
3866;DHT22;1948;53.250;10.412;2023-03-02T03:59:23;2.60;99.90
3866;DHT22;1948;53.250;10.412;2023-03-02T04:01:54;2.50;99.90
3866;DHT22;1948;53.250;10.412;2023-03-02T04:04:33;2.40;99.90
3866;DHT22;1948;53.250;10.412;2023-03-02T04:07:03;2.20;99.90
3866;DHT22;1948;53.250;10.412;2023-03-02T04:09:30;2.10;99.90
3866;DHT22;1948;53.250;10.412;2023-03-02T04:12:03;2.10;99.90
3866;DHT22;1948;53.250;10.412;2023-03-02T04:14:32;2.10;99.90
3866;DHT22;1948;53.250;10.412;2023-03-02T04:16:59;2.10;99.90
3866;DHT22;1948;53.250;10.412;2023-03-02T04:19:26;2.10;99.90
3866;DHT22;1948;53.250;10.412;2023-03-02T04:21:54;2.00;99.90
3866;DHT22;1948;53.250;10.412;2023-03-02T04:24:22;2.10;99.90
3866;DHT22;1948;53.250;10.412;2023-03-02T04:26:51;2.00;99.90
3866;DHT22;1948;53.250;10.412;2023-03-02T04:29:18;2.10;99.90
3866;DHT22;1948;53.250;10.412;2023-03-02T04:31:45;2.00;99.90
3866;DHT22;1948;53.250;10.412;2023-03-02T04:34:16;2.00;99.90
3866;DHT22;1948;53.250;10.412;2023-03-02T04:36:46;2.00;99.90
3866;DHT22;1948;53.250;10.412;2023-03-02T04:39:15;2.10;99.90
3866;DHT22;1948;53.250;10.412;2023-03-02T04:41:44;2.10;99.90
3866;DHT22;1948;53.250;10.412;2023-03-02T04:44:17;2.20;99.90
3866;DHT22;1948;53.250;10.412;2023-03-02T04:46:47;2.20;99.90
3866;DHT22;1948;53.250;10.412;2023-03-02T04:49:18;2.20;99.90
3866;DHT22;1948;53.250;10.412;2023-03-02T04:51:49;2.20;99.90
3866;DHT22;1948;53.250;10.412;2023-03-02T04:54:22;2.20;99.90
3866;DHT22;1948;53.250;10.412;2023-03-02T04:56:51;2.20;99.90
3866;DHT22;1948;53.250;10.412;2023-03-02T04:59:24;2.20;99.90
3866;DHT22;1948;53.250;10.412;2023-03-02T05:01:56;2.00;99.90
3866;DHT22;1948;53.250;10.412;2023-03-02T05:04:28;2.10;99.90
3866;DHT22;1948;53.250;10.412;2023-03-02T05:07:01;2.00;99.90
3866;DHT22;1948;53.250;10.412;2023-03-02T05:09:32;2.00;99.90
3866;DHT22;1948;53.250;10.412;2023-03-02T05:11:59;2.00;99.90
3866;DHT22;1948;53.250;10.412;2023-03-02T05:14:28;2.00;99.90
3866;DHT22;1948;53.250;10.412;2023-03-02T05:16:55;1.90;99.90
3866;DHT22;1948;53.250;10.412;2023-03-02T05:19:25;1.90;99.90
3866;DHT22;1948;53.250;10.412;2023-03-02T05:21:55;2.00;99.90
3866;DHT22;1948;53.250;10.412;2023-03-02T05:24:22;2.00;99.90
3866;DHT22;1948;53.250;10.412;2023-03-02T05:26:49;2.00;99.90
3866;DHT22;1948;53.250;10.412;2023-03-02T05:29:17;2.00;99.90
3866;DHT22;1948;53.250;10.412;2023-03-02T05:31:45;2.00;99.90
3866;DHT22;1948;53.250;10.412;2023-03-02T05:34:18;2.00;99.90
3866;DHT22;1948;53.250;10.412;2023-03-02T05:36:45;2.00;99.90
3866;DHT22;1948;53.250;10.412;2023-03-02T05:39:12;2.10;99.90
3866;DHT22;1948;53.250;10.412;2023-03-02T05:41:40;2.00;99.90
3866;DHT22;1948;53.250;10.412;2023-03-02T05:44:07;2.10;99.90
3866;DHT22;1948;53.250;10.412;2023-03-02T05:46:39;2.00;99.90
3866;DHT22;1948;53.250;10.412;2023-03-02T05:49:13;2.00;99.90
3866;DHT22;1948;53.250;10.412;2023-03-02T05:51:42;2.10;99.90
3866;DHT22;1948;53.250;10.412;2023-03-02T05:54:09;2.10;99.90
3866;DHT22;1948;53.250;10.412;2023-03-02T05:56:36;2.10;99.90
3866;DHT22;1948;53.250;10.412;2023-03-02T05:59:07;2.20;99.90
3866;DHT22;1948;53.250;10.412;2023-03-02T06:01:37;2.10;99.90
3866;DHT22;1948;53.250;10.412;2023-03-02T06:04:04;2.10;99.90
3866;DHT22;1948;53.250;10.412;2023-03-02T06:06:31;2.10;99.90
3866;DHT22;1948;53.250;10.412;2023-03-02T06:08:59;2.20;99.90
3866;DHT22;1948;53.250;10.412;2023-03-02T06:11:26;2.20;99.90
3866;DHT22;1948;53.250;10.412;2023-03-02T06:13:58;2.20;99.90
3866;DHT22;1948;53.250;10.412;2023-03-02T06:16:29;2.20;99.90
3866;DHT22;1948;53.250;10.412;2023-03-02T06:18:58;2.30;99.90
3866;DHT22;1948;53.250;10.412;2023-03-02T06:21:27;2.30;99.90
3866;DHT22;1948;53.250;10.412;2023-03-02T06:23:54;2.30;99.90
3866;DHT22;1948;53.250;10.412;2023-03-02T06:26:21;2.30;99.90
3866;DHT22;1948;53.250;10.412;2023-03-02T06:28:48;2.20;99.90
3866;DHT22;1948;53.250;10.412;2023-03-02T06:31:22;2.20;99.90
3866;DHT22;1948;53.250;10.412;2023-03-02T06:33:54;2.10;99.90
3866;DHT22;1948;53.250;10.412;2023-03-02T06:36:21;2.10;99.90
3866;DHT22;1948;53.250;10.412;2023-03-02T06:38:52;2.00;99.90
3866;DHT22;1948;53.250;10.412;2023-03-02T06:41:19;1.90;99.90
3866;DHT22;1948;53.250;10.412;2023-03-02T06:43:46;1.90;99.90
3866;DHT22;1948;53.250;10.412;2023-03-02T06:46:15;1.90;99.90
3866;DHT22;1948;53.250;10.412;2023-03-02T06:48:42;2.00;99.90
3866;DHT22;1948;53.250;10.412;2023-03-02T06:51:09;2.00;99.90
3866;DHT22;1948;53.250;10.412;2023-03-02T06:53:39;2.00;99.90
3866;DHT22;1948;53.250;10.412;2023-03-02T06:56:06;2.10;99.90
3866;DHT22;1948;53.250;10.412;2023-03-02T06:58:34;2.10;99.90
3866;DHT22;1948;53.250;10.412;2023-03-02T07:01:01;2.10;99.90
3866;DHT22;1948;53.250;10.412;2023-03-02T07:03:28;2.00;99.90
3866;DHT22;1948;53.250;10.412;2023-03-02T07:06:02;2.10;99.90
3866;DHT22;1948;53.250;10.412;2023-03-02T07:08:29;2.10;99.90
3866;DHT22;1948;53.250;10.412;2023-03-02T07:10:56;2.10;99.90
3866;DHT22;1948;53.250;10.412;2023-03-02T07:13:23;2.20;99.90
3866;DHT22;1948;53.250;10.412;2023-03-02T07:15:50;2.30;99.90
3866;DHT22;1948;53.250;10.412;2023-03-02T07:18:17;2.40;99.90
3866;DHT22;1948;53.250;10.412;2023-03-02T07:20:44;2.50;99.90
3866;DHT22;1948;53.250;10.412;2023-03-02T07:23:11;2.50;99.90
3866;DHT22;1948;53.250;10.412;2023-03-02T07:25:38;2.50;99.90
3866;DHT22;1948;53.250;10.412;2023-03-02T07:28:05;2.50;99.90
3866;DHT22;1948;53.250;10.412;2023-03-02T07:30:32;2.50;99.90
3866;DHT22;1948;53.250;10.412;2023-03-02T07:33:01;2.60;99.90
3866;DHT22;1948;53.250;10.412;2023-03-02T07:35:31;2.60;99.90
3866;DHT22;1948;53.250;10.412;2023-03-02T07:38:00;2.60;99.90
3866;DHT22;1948;53.250;10.412;2023-03-02T07:40:29;2.60;99.90
3866;DHT22;1948;53.250;10.412;2023-03-02T07:42:59;2.60;99.90
3866;DHT22;1948;53.250;10.412;2023-03-02T07:45:28;2.50;99.90
3866;DHT22;1948;53.250;10.412;2023-03-02T07:47:55;2.60;99.90
3866;DHT22;1948;53.250;10.412;2023-03-02T07:50:22;2.60;99.90
3866;DHT22;1948;53.250;10.412;2023-03-02T07:52:53;2.60;99.90
3866;DHT22;1948;53.250;10.412;2023-03-02T07:55:20;2.60;99.90
3866;DHT22;1948;53.250;10.412;2023-03-02T07:57:47;2.60;99.90
3866;DHT22;1948;53.250;10.412;2023-03-02T08:00:15;2.60;99.90
3866;DHT22;1948;53.250;10.412;2023-03-02T08:02:42;2.60;99.90
3866;DHT22;1948;53.250;10.412;2023-03-02T08:05:10;2.60;99.90
3866;DHT22;1948;53.250;10.412;2023-03-02T08:07:37;2.70;99.90
3866;DHT22;1948;53.250;10.412;2023-03-02T08:10:06;2.70;99.90
3866;DHT22;1948;53.250;10.412;2023-03-02T08:12:35;2.70;99.90
3866;DHT22;1948;53.250;10.412;2023-03-02T08:15:03;2.70;99.90
3866;DHT22;1948;53.250;10.412;2023-03-02T08:17:32;2.80;99.90
3866;DHT22;1948;53.250;10.412;2023-03-02T08:20:04;2.80;99.90
3866;DHT22;1948;53.250;10.412;2023-03-02T08:22:37;2.90;99.90
3866;DHT22;1948;53.250;10.412;2023-03-02T08:25:09;2.90;99.90
3866;DHT22;1948;53.250;10.412;2023-03-02T08:27:36;2.90;99.90
3866;DHT22;1948;53.250;10.412;2023-03-02T08:30:07;3.00;99.90
3866;DHT22;1948;53.250;10.412;2023-03-02T08:32:36;3.10;99.90
3866;DHT22;1948;53.250;10.412;2023-03-02T08:35:05;3.20;99.90
3866;DHT22;1948;53.250;10.412;2023-03-02T08:37:35;3.20;99.90
3866;DHT22;1948;53.250;10.412;2023-03-02T08:40:07;3.30;99.90
3866;DHT22;1948;53.250;10.412;2023-03-02T08:42:35;3.50;99.90
3866;DHT22;1948;53.250;10.412;2023-03-02T08:45:02;3.60;99.90
3866;DHT22;1948;53.250;10.412;2023-03-02T08:47:29;3.50;99.90
3866;DHT22;1948;53.250;10.412;2023-03-02T08:49:58;3.50;99.90
3866;DHT22;1948;53.250;10.412;2023-03-02T08:52:25;3.50;99.90
3866;DHT22;1948;53.250;10.412;2023-03-02T08:54:52;3.50;99.90
3866;DHT22;1948;53.250;10.412;2023-03-02T08:57:19;3.70;99.90
3866;DHT22;1948;53.250;10.412;2023-03-02T08:59:47;3.70;99.90
3866;DHT22;1948;53.250;10.412;2023-03-02T09:02:13;3.80;99.90
3866;DHT22;1948;53.250;10.412;2023-03-02T09:04:40;3.70;99.90
3866;DHT22;1948;53.250;10.412;2023-03-02T09:07:08;3.80;99.90
3866;DHT22;1948;53.250;10.412;2023-03-02T09:09:35;3.70;99.90
3866;DHT22;1948;53.250;10.412;2023-03-02T09:12:02;3.60;99.90
3866;DHT22;1948;53.250;10.412;2023-03-02T09:14:29;3.70;99.90
3866;DHT22;1948;53.250;10.412;2023-03-02T09:16:56;3.70;99.90
3866;DHT22;1948;53.250;10.412;2023-03-02T09:19:23;3.70;99.90
3866;DHT22;1948;53.250;10.412;2023-03-02T09:21:50;3.70;99.90
3866;DHT22;1948;53.250;10.412;2023-03-02T09:24:17;3.80;99.90
3866;DHT22;1948;53.250;10.412;2023-03-02T09:26:48;3.80;99.90
3866;DHT22;1948;53.250;10.412;2023-03-02T09:29:19;3.80;99.90
3866;DHT22;1948;53.250;10.412;2023-03-02T09:31:46;3.80;99.90
3866;DHT22;1948;53.250;10.412;2023-03-02T09:34:13;3.70;99.90
3866;DHT22;1948;53.250;10.412;2023-03-02T09:36:40;3.70;99.90
3866;DHT22;1948;53.250;10.412;2023-03-02T09:39:10;3.60;99.90
3866;DHT22;1948;53.250;10.412;2023-03-02T09:55:58;3.90;99.90
3866;DHT22;1948;53.250;10.412;2023-03-02T09:58:30;3.90;99.90
3866;DHT22;1948;53.250;10.412;2023-03-02T10:01:09;3.90;99.90
3866;DHT22;1948;53.250;10.412;2023-03-02T10:03:56;3.90;99.90
3866;DHT22;1948;53.250;10.412;2023-03-02T10:06:31;4.00;99.90
3866;DHT22;1948;53.250;10.412;2023-03-02T10:08:58;4.10;99.90
3866;DHT22;1948;53.250;10.412;2023-03-02T10:12:07;4.10;99.90
3866;DHT22;1948;53.250;10.412;2023-03-02T10:15:07;4.10;99.90
3866;DHT22;1948;53.250;10.412;2023-03-02T10:17:51;4.10;99.90
3866;DHT22;1948;53.250;10.412;2023-03-02T10:28:51;4.20;99.90
3866;DHT22;1948;53.250;10.412;2023-03-02T10:31:40;4.30;99.90
3866;DHT22;1948;53.250;10.412;2023-03-02T10:34:10;4.30;99.90
3866;DHT22;1948;53.250;10.412;2023-03-02T10:36:40;4.30;99.90
3866;DHT22;1948;53.250;10.412;2023-03-02T10:39:14;4.40;99.90
3866;DHT22;1948;53.250;10.412;2023-03-02T10:44:37;4.60;99.90
3866;DHT22;1948;53.250;10.412;2023-03-02T10:47:06;4.60;99.90
3866;DHT22;1948;53.250;10.412;2023-03-02T10:49:36;4.60;99.90
3866;DHT22;1948;53.250;10.412;2023-03-02T10:52:15;4.60;99.90
3866;DHT22;1948;53.250;10.412;2023-03-02T10:54:45;4.70;99.90
3866;DHT22;1948;53.250;10.412;2023-03-02T10:57:36;4.70;99.90
3866;DHT22;1948;53.250;10.412;2023-03-02T11:05:25;4.80;99.90
3866;DHT22;1948;53.250;10.412;2023-03-02T11:10:37;4.90;99.90
3866;DHT22;1948;53.250;10.412;2023-03-02T11:13:17;4.90;99.90
3866;DHT22;1948;53.250;10.412;2023-03-02T11:16:00;4.90;99.90
3866;DHT22;1948;53.250;10.412;2023-03-02T11:18:39;4.80;99.90
3866;DHT22;1948;53.250;10.412;2023-03-02T11:21:14;4.90;99.90
3866;DHT22;1948;53.250;10.412;2023-03-02T11:24:10;4.90;99.90
3866;DHT22;1948;53.250;10.412;2023-03-02T11:32:36;4.80;99.90
3866;DHT22;1948;53.250;10.412;2023-03-02T11:43:47;4.90;99.90
3866;DHT22;1948;53.250;10.412;2023-03-02T11:46:23;4.80;99.90
3866;DHT22;1948;53.250;10.412;2023-03-02T11:48:56;4.90;99.90
3866;DHT22;1948;53.250;10.412;2023-03-02T11:51:29;4.90;99.90
3866;DHT22;1948;53.250;10.412;2023-03-02T11:54:12;4.90;99.90
3866;DHT22;1948;53.250;10.412;2023-03-02T11:56:48;5.10;99.90
3866;DHT22;1948;53.250;10.412;2023-03-02T11:59:22;5.00;99.90
3866;DHT22;1948;53.250;10.412;2023-03-02T12:01:55;5.10;99.90
3866;DHT22;1948;53.250;10.412;2023-03-02T12:04:37;5.00;99.90
3866;DHT22;1948;53.250;10.412;2023-03-02T12:07:24;4.90;99.90
3866;DHT22;1948;53.250;10.412;2023-03-02T12:10:23;5.00;99.90
3866;DHT22;1948;53.250;10.412;2023-03-02T12:13:16;5.00;99.90
3866;DHT22;1948;53.250;10.412;2023-03-02T12:15:50;5.10;99.90
3866;DHT22;1948;53.250;10.412;2023-03-02T12:21:03;5.00;99.90
3866;DHT22;1948;53.250;10.412;2023-03-02T12:37:52;4.80;99.90
3866;DHT22;1948;53.250;10.412;2023-03-02T12:49:15;4.90;99.90
3866;DHT22;1948;53.250;10.412;2023-03-02T12:52:27;5.00;99.90
3866;DHT22;1948;53.250;10.412;2023-03-02T12:55:15;5.00;99.90
3866;DHT22;1948;53.250;10.412;2023-03-02T12:57:56;4.90;99.90
3866;DHT22;1948;53.250;10.412;2023-03-02T13:00:28;4.90;99.90
3866;DHT22;1948;53.250;10.412;2023-03-02T13:03:00;4.90;99.90
3866;DHT22;1948;53.250;10.412;2023-03-02T13:05:34;5.00;99.90
3866;DHT22;1948;53.250;10.412;2023-03-02T13:08:16;5.00;99.90
3866;DHT22;1948;53.250;10.412;2023-03-02T13:10:52;5.20;99.90
3866;DHT22;1948;53.250;10.412;2023-03-02T13:13:35;5.20;99.90
3866;DHT22;1948;53.250;10.412;2023-03-02T13:16:17;5.20;99.90
3866;DHT22;1948;53.250;10.412;2023-03-02T13:18:47;5.20;99.90
3866;DHT22;1948;53.250;10.412;2023-03-02T13:21:17;5.20;99.90
3866;DHT22;1948;53.250;10.412;2023-03-02T13:23:48;5.30;99.90
3866;DHT22;1948;53.250;10.412;2023-03-02T13:31:45;5.40;99.90
3866;DHT22;1948;53.250;10.412;2023-03-02T13:34:26;5.40;99.90
3866;DHT22;1948;53.250;10.412;2023-03-02T13:36:54;5.40;99.90
3866;DHT22;1948;53.250;10.412;2023-03-02T13:39:25;5.40;99.90
3866;DHT22;1948;53.250;10.412;2023-03-02T13:42:01;5.30;99.90
3866;DHT22;1948;53.250;10.412;2023-03-02T13:44:33;5.10;99.90
3866;DHT22;1948;53.250;10.412;2023-03-02T13:47:03;5.10;99.90
3866;DHT22;1948;53.250;10.412;2023-03-02T13:49:34;5.20;99.90
3866;DHT22;1948;53.250;10.412;2023-03-02T13:52:05;5.30;99.90
3866;DHT22;1948;53.250;10.412;2023-03-02T13:54:41;5.10;99.90
3866;DHT22;1948;53.250;10.412;2023-03-02T13:57:15;5.10;99.90
3866;DHT22;1948;53.250;10.412;2023-03-02T13:59:47;5.10;99.90
3866;DHT22;1948;53.250;10.412;2023-03-02T14:02:22;5.10;99.90
3866;DHT22;1948;53.250;10.412;2023-03-02T14:04:53;5.10;99.90
3866;DHT22;1948;53.250;10.412;2023-03-02T14:07:20;5.10;99.90
3866;DHT22;1948;53.250;10.412;2023-03-02T14:09:47;5.00;99.90
3866;DHT22;1948;53.250;10.412;2023-03-02T14:12:31;5.10;99.90
3866;DHT22;1948;53.250;10.412;2023-03-02T14:15:00;5.10;99.90
3866;DHT22;1948;53.250;10.412;2023-03-02T14:17:30;5.10;99.90
3866;DHT22;1948;53.250;10.412;2023-03-02T14:19:57;5.10;99.90
3866;DHT22;1948;53.250;10.412;2023-03-02T14:22:25;5.10;99.90
3866;DHT22;1948;53.250;10.412;2023-03-02T14:24:57;5.10;99.90
3866;DHT22;1948;53.250;10.412;2023-03-02T14:27:28;5.00;99.90
3866;DHT22;1948;53.250;10.412;2023-03-02T14:29:58;5.10;99.90
3866;DHT22;1948;53.250;10.412;2023-03-02T14:32:26;5.10;99.90
3866;DHT22;1948;53.250;10.412;2023-03-02T14:34:53;5.20;99.90
3866;DHT22;1948;53.250;10.412;2023-03-02T14:37:23;5.20;99.90
3866;DHT22;1948;53.250;10.412;2023-03-02T14:39:52;5.30;99.90
3866;DHT22;1948;53.250;10.412;2023-03-02T14:42:21;5.30;99.90
3866;DHT22;1948;53.250;10.412;2023-03-02T14:44:50;5.20;99.90
3866;DHT22;1948;53.250;10.412;2023-03-02T14:47:19;5.10;99.90
3866;DHT22;1948;53.250;10.412;2023-03-02T14:49:49;5.00;99.90
3866;DHT22;1948;53.250;10.412;2023-03-02T14:52:30;5.00;99.90
3866;DHT22;1948;53.250;10.412;2023-03-02T14:57:57;5.00;99.90
3866;DHT22;1948;53.250;10.412;2023-03-02T15:00:26;5.00;99.90
3866;DHT22;1948;53.250;10.412;2023-03-02T15:02:53;5.10;99.90
3866;DHT22;1948;53.250;10.412;2023-03-02T15:05:21;5.10;99.90
3866;DHT22;1948;53.250;10.412;2023-03-02T15:07:48;5.10;99.90
3866;DHT22;1948;53.250;10.412;2023-03-02T15:10:20;5.10;99.90
3866;DHT22;1948;53.250;10.412;2023-03-02T15:12:48;5.00;99.90
3866;DHT22;1948;53.250;10.412;2023-03-02T15:15:15;5.10;99.90
3866;DHT22;1948;53.250;10.412;2023-03-02T15:17:45;5.10;99.90
3866;DHT22;1948;53.250;10.412;2023-03-02T15:20:15;5.10;99.90
3866;DHT22;1948;53.250;10.412;2023-03-02T15:22:42;5.10;99.90
3866;DHT22;1948;53.250;10.412;2023-03-02T15:25:18;5.10;99.90
3866;DHT22;1948;53.250;10.412;2023-03-02T15:27:49;5.10;99.90
3866;DHT22;1948;53.250;10.412;2023-03-02T15:30:16;5.10;99.90
3866;DHT22;1948;53.250;10.412;2023-03-02T15:32:44;5.20;99.90
3866;DHT22;1948;53.250;10.412;2023-03-02T15:35:11;5.20;99.90
3866;DHT22;1948;53.250;10.412;2023-03-02T15:37:40;5.30;99.90
3866;DHT22;1948;53.250;10.412;2023-03-02T15:40:10;5.30;99.90
3866;DHT22;1948;53.250;10.412;2023-03-02T15:42:37;5.20;99.90
3866;DHT22;1948;53.250;10.412;2023-03-02T15:45:04;5.10;99.90
3866;DHT22;1948;53.250;10.412;2023-03-02T15:47:34;5.10;99.90
3866;DHT22;1948;53.250;10.412;2023-03-02T15:50:04;5.10;99.90
3866;DHT22;1948;53.250;10.412;2023-03-02T15:52:33;5.00;99.90
3866;DHT22;1948;53.250;10.412;2023-03-02T15:55:00;4.90;99.90
3866;DHT22;1948;53.250;10.412;2023-03-02T15:57:27;4.90;99.90
3866;DHT22;1948;53.250;10.412;2023-03-02T15:59:54;4.90;99.90
3866;DHT22;1948;53.250;10.412;2023-03-02T16:02:23;4.90;99.90
3866;DHT22;1948;53.250;10.412;2023-03-02T16:04:50;4.90;99.90
3866;DHT22;1948;53.250;10.412;2023-03-02T16:07:20;4.90;99.90
3866;DHT22;1948;53.250;10.412;2023-03-02T16:09:51;4.90;99.90
3866;DHT22;1948;53.250;10.412;2023-03-02T16:12:22;4.90;99.90
3866;DHT22;1948;53.250;10.412;2023-03-02T16:14:50;4.90;99.90
3866;DHT22;1948;53.250;10.412;2023-03-02T16:17:20;4.90;99.90
3866;DHT22;1948;53.250;10.412;2023-03-02T16:19:46;5.00;99.90
3866;DHT22;1948;53.250;10.412;2023-03-02T16:22:14;5.00;99.90
3866;DHT22;1948;53.250;10.412;2023-03-02T16:24:41;4.90;99.90
3866;DHT22;1948;53.250;10.412;2023-03-02T16:27:08;4.90;99.90
3866;DHT22;1948;53.250;10.412;2023-03-02T16:29:35;4.90;99.90
3866;DHT22;1948;53.250;10.412;2023-03-02T16:32:02;4.80;99.90
3866;DHT22;1948;53.250;10.412;2023-03-02T16:34:29;4.90;99.90
3866;DHT22;1948;53.250;10.412;2023-03-02T16:36:56;4.90;99.90
3866;DHT22;1948;53.250;10.412;2023-03-02T16:39:23;4.90;99.90
3866;DHT22;1948;53.250;10.412;2023-03-02T16:41:50;4.80;99.90
3866;DHT22;1948;53.250;10.412;2023-03-02T16:44:18;4.80;99.90
3866;DHT22;1948;53.250;10.412;2023-03-02T16:46:45;4.80;99.90
3866;DHT22;1948;53.250;10.412;2023-03-02T16:49:13;4.80;99.90
3866;DHT22;1948;53.250;10.412;2023-03-02T16:51:41;4.80;99.90
3866;DHT22;1948;53.250;10.412;2023-03-02T16:54:14;4.70;99.90
3866;DHT22;1948;53.250;10.412;2023-03-02T16:56:42;4.70;99.90
3866;DHT22;1948;53.250;10.412;2023-03-02T16:59:13;4.70;99.90
3866;DHT22;1948;53.250;10.412;2023-03-02T17:01:44;4.70;99.90
3866;DHT22;1948;53.250;10.412;2023-03-02T17:04:14;4.70;99.90
3866;DHT22;1948;53.250;10.412;2023-03-02T17:06:47;4.70;99.90
3866;DHT22;1948;53.250;10.412;2023-03-02T17:09:26;4.70;99.90
3866;DHT22;1948;53.250;10.412;2023-03-02T17:11:53;4.60;99.90
3866;DHT22;1948;53.250;10.412;2023-03-02T17:14:21;4.70;99.90
3866;DHT22;1948;53.250;10.412;2023-03-02T17:16:50;4.60;99.90
3866;DHT22;1948;53.250;10.412;2023-03-02T17:19:19;4.70;99.90
3866;DHT22;1948;53.250;10.412;2023-03-02T17:21:47;4.60;99.90
3866;DHT22;1948;53.250;10.412;2023-03-02T17:24:16;4.60;99.90
3866;DHT22;1948;53.250;10.412;2023-03-02T17:26:43;4.60;99.90
3866;DHT22;1948;53.250;10.412;2023-03-02T17:29:12;4.60;99.90
3866;DHT22;1948;53.250;10.412;2023-03-02T17:31:39;4.50;99.90
3866;DHT22;1948;53.250;10.412;2023-03-02T17:34:08;4.40;99.90
3866;DHT22;1948;53.250;10.412;2023-03-02T17:36:35;4.40;99.90
3866;DHT22;1948;53.250;10.412;2023-03-02T17:39:03;4.40;99.90
3866;DHT22;1948;53.250;10.412;2023-03-02T17:41:32;4.40;99.90
3866;DHT22;1948;53.250;10.412;2023-03-02T17:44:00;4.50;99.90
3866;DHT22;1948;53.250;10.412;2023-03-02T17:46:28;4.40;99.90
3866;DHT22;1948;53.250;10.412;2023-03-02T17:49:01;4.40;99.90
3866;DHT22;1948;53.250;10.412;2023-03-02T17:51:30;4.50;99.90
3866;DHT22;1948;53.250;10.412;2023-03-02T17:53:58;4.50;99.90
3866;DHT22;1948;53.250;10.412;2023-03-02T17:56:27;4.60;99.90
3866;DHT22;1948;53.250;10.412;2023-03-02T17:59:02;4.60;99.90
3866;DHT22;1948;53.250;10.412;2023-03-02T18:01:35;4.60;99.90